sensor_id;sensor_type;location;lat;lon;timestamp;pressure;altitude;pressure_sealevel;temperature;humidity
56912;BME280;42800;53.928;27.662;2023-03-11T00:00:25;97096.81;;;-0.24;100.00
56912;BME280;42800;53.928;27.662;2023-03-11T00:02:53;97108.81;;;-0.21;100.00
56912;BME280;42800;53.928;27.662;2023-03-11T00:05:22;97104.41;;;-0.13;100.00
56912;BME280;42800;53.928;27.662;2023-03-11T00:07:49;97115.13;;;-0.29;100.00
56912;BME280;42800;53.928;27.662;2023-03-11T00:10:18;97108.13;;;-0.18;100.00
56912;BME280;42800;53.928;27.662;2023-03-11T00:12:44;97107.47;;;-0.43;100.00
56912;BME280;42800;53.928;27.662;2023-03-11T00:15:11;97086.84;;;-0.07;100.00
56912;BME280;42800;53.928;27.662;2023-03-11T00:17:38;97095.59;;;-0.26;100.00
56912;BME280;42800;53.928;27.662;2023-03-11T00:20:06;97085.84;;;-0.31;100.00
56912;BME280;42800;53.928;27.662;2023-03-11T00:22:32;97081.72;;;-0.12;100.00
56912;BME280;42800;53.928;27.662;2023-03-11T00:24:58;97076.69;;;-0.14;100.00
56912;BME280;42800;53.928;27.662;2023-03-11T00:27:24;97072.19;;;-0.10;100.00
56912;BME280;42800;53.928;27.662;2023-03-11T00:29:50;97064.09;;;-0.10;100.00
56912;BME280;42800;53.928;27.662;2023-03-11T00:32:16;97062.81;;;0.00;100.00
56912;BME280;42800;53.928;27.662;2023-03-11T00:34:43;97067.91;;;-0.11;100.00
56912;BME280;42800;53.928;27.662;2023-03-11T00:37:09;97058.78;;;0.10;100.00
56912;BME280;42800;53.928;27.662;2023-03-11T00:39:34;97054.03;;;-0.13;100.00
56912;BME280;42800;53.928;27.662;2023-03-11T00:42:00;97048.53;;;-0.01;100.00
56912;BME280;42800;53.928;27.662;2023-03-11T00:44:28;97049.50;;;0.07;100.00
56912;BME280;42800;53.928;27.662;2023-03-11T00:46:53;97036.53;;;0.13;100.00
56912;BME280;42800;53.928;27.662;2023-03-11T00:49:19;97047.50;;;0.20;100.00
56912;BME280;42800;53.928;27.662;2023-03-11T00:51:46;97055.31;;;-0.22;100.00
56912;BME280;42800;53.928;27.662;2023-03-11T00:54:12;97028.81;;;0.11;100.00
56912;BME280;42800;53.928;27.662;2023-03-11T00:56:38;97025.06;;;0.16;100.00
56912;BME280;42800;53.928;27.662;2023-03-11T00:59:06;97026.38;;;0.06;100.00
56912;BME280;42800;53.928;27.662;2023-03-11T01:01:32;97009.00;;;0.19;100.00
56912;BME280;42800;53.928;27.662;2023-03-11T01:03:57;97007.91;;;0.40;100.00
56912;BME280;42800;53.928;27.662;2023-03-11T01:06:23;97020.81;;;-0.01;100.00
56912;BME280;42800;53.928;27.662;2023-03-11T01:08:50;96998.75;;;0.09;100.00
56912;BME280;42800;53.928;27.662;2023-03-11T01:11:16;97000.75;;;0.12;100.00
56912;BME280;42800;53.928;27.662;2023-03-11T01:13:42;96998.13;;;0.16;100.00
56912;BME280;42800;53.928;27.662;2023-03-11T01:16:08;97002.31;;;-0.03;100.00
56912;BME280;42800;53.928;27.662;2023-03-11T01:18:34;96980.13;;;0.20;100.00
56912;BME280;42800;53.928;27.662;2023-03-11T01:21:00;96980.66;;;0.10;100.00
56912;BME280;42800;53.928;27.662;2023-03-11T01:23:26;96969.88;;;0.26;100.00
56912;BME280;42800;53.928;27.662;2023-03-11T01:25:52;96953.44;;;0.31;100.00
56912;BME280;42800;53.928;27.662;2023-03-11T01:28:18;96947.31;;;0.14;100.00
56912;BME280;42800;53.928;27.662;2023-03-11T01:30:44;96931.75;;;0.43;100.00
56912;BME280;42800;53.928;27.662;2023-03-11T01:33:13;96924.31;;;0.56;100.00
56912;BME280;42800;53.928;27.662;2023-03-11T01:35:40;96923.59;;;0.39;100.00
56912;BME280;42800;53.928;27.662;2023-03-11T01:38:08;96932.28;;;0.33;100.00
56912;BME280;42800;53.928;27.662;2023-03-11T01:40:36;96918.44;;;0.50;100.00
56912;BME280;42800;53.928;27.662;2023-03-11T01:43:05;96917.47;;;0.42;100.00
56912;BME280;42800;53.928;27.662;2023-03-11T01:45:40;96904.22;;;0.53;100.00
56912;BME280;42800;53.928;27.662;2023-03-11T01:48:08;96909.91;;;0.48;100.00
56912;BME280;42800;53.928;27.662;2023-03-11T01:50:36;96898.78;;;0.69;100.00
56912;BME280;42800;53.928;27.662;2023-03-11T01:53:03;96902.88;;;0.63;100.00
56912;BME280;42800;53.928;27.662;2023-03-11T01:55:30;96904.75;;;0.78;100.00
56912;BME280;42800;53.928;27.662;2023-03-11T01:57:57;96906.88;;;0.88;100.00
56912;BME280;42800;53.928;27.662;2023-03-11T02:00:25;96915.09;;;0.76;100.00
56912;BME280;42800;53.928;27.662;2023-03-11T02:02:52;96917.56;;;0.65;100.00
56912;BME280;42800;53.928;27.662;2023-03-11T02:05:20;96906.00;;;0.65;100.00
56912;BME280;42800;53.928;27.662;2023-03-11T02:07:48;96898.50;;;0.74;100.00
56912;BME280;42800;53.928;27.662;2023-03-11T02:10:15;96888.13;;;0.76;100.00
56912;BME280;42800;53.928;27.662;2023-03-11T02:12:43;96880.31;;;0.90;100.00
56912;BME280;42800;53.928;27.662;2023-03-11T02:15:10;96880.16;;;0.83;100.00
56912;BME280;42800;53.928;27.662;2023-03-11T02:17:39;96878.03;;;0.92;100.00
56912;BME280;42800;53.928;27.662;2023-03-11T02:20:16;96876.91;;;0.93;100.00
56912;BME280;42800;53.928;27.662;2023-03-11T02:22:45;96863.91;;;0.80;100.00
56912;BME280;42800;53.928;27.662;2023-03-11T02:25:20;96856.25;;;0.82;100.00
56912;BME280;42800;53.928;27.662;2023-03-11T02:27:52;96852.72;;;0.78;100.00
56912;BME280;42800;53.928;27.662;2023-03-11T02:30:20;96849.38;;;0.84;100.00
56912;BME280;42800;53.928;27.662;2023-03-11T02:32:47;96853.63;;;0.85;100.00
56912;BME280;42800;53.928;27.662;2023-03-11T02:35:15;96836.56;;;1.01;100.00
56912;BME280;42800;53.928;27.662;2023-03-11T02:37:45;96826.97;;;0.80;100.00
56912;BME280;42800;53.928;27.662;2023-03-11T02:40:34;96829.94;;;0.75;100.00
56912;BME280;42800;53.928;27.662;2023-03-11T02:43:05;96809.47;;;0.93;100.00
56912;BME280;42800;53.928;27.662;2023-03-11T02:45:32;96805.19;;;0.92;100.00
56912;BME280;42800;53.928;27.662;2023-03-11T02:47:59;96807.47;;;0.90;100.00
56912;BME280;42800;53.928;27.662;2023-03-11T02:50:27;96811.84;;;0.99;100.00
56912;BME280;42800;53.928;27.662;2023-03-11T02:52:53;96829.16;;;0.75;100.00
56912;BME280;42800;53.928;27.662;2023-03-11T02:55:19;96827.69;;;1.00;100.00
56912;BME280;42800;53.928;27.662;2023-03-11T02:57:46;96820.25;;;0.93;100.00
56912;BME280;42800;53.928;27.662;2023-03-11T03:00:15;96823.28;;;0.92;100.00
56912;BME280;42800;53.928;27.662;2023-03-11T03:02:43;96822.47;;;0.88;100.00
56912;BME280;42800;53.928;27.662;2023-03-11T03:05:10;96807.00;;;0.85;100.00
56912;BME280;42800;53.928;27.662;2023-03-11T03:07:37;96794.88;;;0.98;100.00
56912;BME280;42800;53.928;27.662;2023-03-11T03:10:04;96794.22;;;1.05;100.00
56912;BME280;42800;53.928;27.662;2023-03-11T03:12:30;96801.56;;;1.04;100.00
56912;BME280;42800;53.928;27.662;2023-03-11T03:14:56;96812.28;;;1.24;100.00
56912;BME280;42800;53.928;27.662;2023-03-11T03:17:23;96826.44;;;0.94;100.00
56912;BME280;42800;53.928;27.662;2023-03-11T03:19:49;96812.28;;;1.24;100.00
56912;BME280;42800;53.928;27.662;2023-03-11T03:22:15;96820.75;;;0.80;100.00
56912;BME280;42800;53.928;27.662;2023-03-11T03:24:41;96804.91;;;0.98;100.00
56912;BME280;42800;53.928;27.662;2023-03-11T03:27:07;96799.03;;;0.92;100.00
56912;BME280;42800;53.928;27.662;2023-03-11T03:29:32;96796.75;;;1.17;100.00
56912;BME280;42800;53.928;27.662;2023-03-11T03:31:58;96791.69;;;0.92;100.00
56912;BME280;42800;53.928;27.662;2023-03-11T03:34:25;96775.94;;;0.94;100.00
56912;BME280;42800;53.928;27.662;2023-03-11T03:36:51;96764.13;;;1.03;100.00
56912;BME280;42800;53.928;27.662;2023-03-11T03:39:17;96744.94;;;1.08;100.00
56912;BME280;42800;53.928;27.662;2023-03-11T03:41:44;96766.94;;;1.10;100.00
56912;BME280;42800;53.928;27.662;2023-03-11T03:44:10;96751.66;;;1.17;100.00
56912;BME280;42800;53.928;27.662;2023-03-11T03:46:36;96753.59;;;0.94;100.00
56912;BME280;42800;53.928;27.662;2023-03-11T03:49:02;96739.91;;;1.06;100.00
56912;BME280;42800;53.928;27.662;2023-03-11T03:51:29;96746.88;;;1.07;100.00
56912;BME280;42800;53.928;27.662;2023-03-11T03:53:55;96738.94;;;1.18;100.00
56912;BME280;42800;53.928;27.662;2023-03-11T03:56:21;96748.44;;;0.85;100.00
56912;BME280;42800;53.928;27.662;2023-03-11T03:58:47;96740.16;;;0.98;100.00
56912;BME280;42800;53.928;27.662;2023-03-11T04:01:13;96722.59;;;1.07;100.00
56912;BME280;42800;53.928;27.662;2023-03-11T04:03:39;96734.31;;;1.18;100.00
56912;BME280;42800;53.928;27.662;2023-03-11T04:06:06;96740.09;;;0.94;100.00
56912;BME280;42800;53.928;27.662;2023-03-11T04:08:33;96726.09;;;1.11;100.00
56912;BME280;42800;53.928;27.662;2023-03-11T04:10:58;96720.59;;;1.04;100.00
56912;BME280;42800;53.928;27.662;2023-03-11T04:13:24;96708.66;;;1.05;100.00
56912;BME280;42800;53.928;27.662;2023-03-11T04:15:50;96709.16;;;1.11;100.00
56912;BME280;42800;53.928;27.662;2023-03-11T04:18:17;96717.00;;;0.97;100.00
56912;BME280;42800;53.928;27.662;2023-03-11T04:20:43;96703.59;;;1.00;100.00
56912;BME280;42800;53.928;27.662;2023-03-11T04:23:09;96695.66;;;1.11;100.00
56912;BME280;42800;53.928;27.662;2023-03-11T04:25:35;96689.78;;;1.05;100.00
56912;BME280;42800;53.928;27.662;2023-03-11T04:28:01;96707.06;;;1.01;100.00
56912;BME280;42800;53.928;27.662;2023-03-11T04:30:27;96720.38;;;1.16;100.00
56912;BME280;42800;53.928;27.662;2023-03-11T04:32:53;96732.84;;;0.75;100.00
56912;BME280;42800;53.928;27.662;2023-03-11T04:35:19;96722.41;;;0.97;100.00
56912;BME280;42800;53.928;27.662;2023-03-11T04:37:45;96714.88;;;1.09;100.00
56912;BME280;42800;53.928;27.662;2023-03-11T04:40:12;96706.09;;;0.89;100.00
56912;BME280;42800;53.928;27.662;2023-03-11T04:42:38;96693.81;;;0.69;100.00
56912;BME280;42800;53.928;27.662;2023-03-11T04:45:05;96681.16;;;0.73;100.00
56912;BME280;42800;53.928;27.662;2023-03-11T04:47:32;96655.44;;;1.02;100.00
56912;BME280;42800;53.928;27.662;2023-03-11T04:49:58;96671.13;;;0.70;100.00
56912;BME280;42800;53.928;27.662;2023-03-11T04:52:24;96645.88;;;0.82;100.00
56912;BME280;42800;53.928;27.662;2023-03-11T04:54:49;96635.38;;;0.77;100.00
56912;BME280;42800;53.928;27.662;2023-03-11T04:57:15;96635.09;;;1.08;100.00
56912;BME280;42800;53.928;27.662;2023-03-11T04:59:42;96626.75;;;1.17;100.00
56912;BME280;42800;53.928;27.662;2023-03-11T05:02:08;96629.44;;;1.47;100.00
56912;BME280;42800;53.928;27.662;2023-03-11T05:04:34;96630.31;;;1.55;100.00
56912;BME280;42800;53.928;27.662;2023-03-11T05:07:00;96644.09;;;1.20;100.00
56912;BME280;42800;53.928;27.662;2023-03-11T05:09:26;96649.72;;;1.07;100.00
56912;BME280;42800;53.928;27.662;2023-03-11T05:11:51;96624.69;;;1.07;100.00
56912;BME280;42800;53.928;27.662;2023-03-11T05:14:17;96617.94;;;0.93;100.00
56912;BME280;42800;53.928;27.662;2023-03-11T05:16:44;96605.75;;;1.33;100.00
56912;BME280;42800;53.928;27.662;2023-03-11T05:19:10;96606.88;;;1.32;100.00
56912;BME280;42800;53.928;27.662;2023-03-11T05:21:51;96603.81;;;1.34;100.00
56912;BME280;42800;53.928;27.662;2023-03-11T05:24:17;96601.59;;;1.13;100.00
56912;BME280;42800;53.928;27.662;2023-03-11T05:26:43;96590.00;;;1.09;100.00
56912;BME280;42800;53.928;27.662;2023-03-11T05:29:09;96587.25;;;1.35;100.00
56912;BME280;42800;53.928;27.662;2023-03-11T05:31:35;96580.56;;;1.26;100.00
56912;BME280;42800;53.928;27.662;2023-03-11T05:34:01;96572.31;;;1.45;100.00
56912;BME280;42800;53.928;27.662;2023-03-11T05:36:27;96577.09;;;1.25;100.00
56912;BME280;42800;53.928;27.662;2023-03-11T05:38:53;96566.13;;;1.11;100.00
56912;BME280;42800;53.928;27.662;2023-03-11T05:41:19;96553.72;;;1.70;100.00
56912;BME280;42800;53.928;27.662;2023-03-11T05:43:45;96558.16;;;1.93;100.00
56912;BME280;42800;53.928;27.662;2023-03-11T05:46:11;96557.59;;;1.76;100.00
56912;BME280;42800;53.928;27.662;2023-03-11T05:48:37;96572.78;;;1.51;100.00
56912;BME280;42800;53.928;27.662;2023-03-11T05:51:06;96582.47;;;1.55;100.00
56912;BME280;42800;53.928;27.662;2023-03-11T05:53:32;96576.53;;;1.76;100.00
56912;BME280;42800;53.928;27.662;2023-03-11T05:55:59;96597.91;;;1.55;100.00
56912;BME280;42800;53.928;27.662;2023-03-11T05:58:26;96603.53;;;1.42;100.00
56912;BME280;42800;53.928;27.662;2023-03-11T06:00:52;96581.47;;;1.67;100.00
56912;BME280;42800;53.928;27.662;2023-03-11T06:03:18;96577.59;;;1.68;100.00
56912;BME280;42800;53.928;27.662;2023-03-11T06:05:45;96591.25;;;1.82;100.00
56912;BME280;42800;53.928;27.662;2023-03-11T06:08:11;96596.41;;;1.95;100.00
56912;BME280;42800;53.928;27.662;2023-03-11T06:10:37;96622.22;;;1.92;100.00
56912;BME280;42800;53.928;27.662;2023-03-11T06:13:03;96625.34;;;1.94;100.00
56912;BME280;42800;53.928;27.662;2023-03-11T06:15:29;96616.97;;;2.06;100.00
56912;BME280;42800;53.928;27.662;2023-03-11T06:17:55;96642.38;;;1.64;100.00
56912;BME280;42800;53.928;27.662;2023-03-11T06:20:21;96625.38;;;1.98;100.00
56912;BME280;42800;53.928;27.662;2023-03-11T06:22:47;96624.66;;;2.01;100.00
56912;BME280;42800;53.928;27.662;2023-03-11T06:25:14;96623.09;;;2.41;100.00
56912;BME280;42800;53.928;27.662;2023-03-11T06:27:40;96642.91;;;2.55;100.00
56912;BME280;42800;53.928;27.662;2023-03-11T06:30:07;96657.63;;;2.17;100.00
56912;BME280;42800;53.928;27.662;2023-03-11T06:32:33;96670.88;;;1.92;100.00
56912;BME280;42800;53.928;27.662;2023-03-11T06:34:59;96637.03;;;2.05;100.00
56912;BME280;42800;53.928;27.662;2023-03-11T06:37:25;96630.09;;;2.04;100.00
56912;BME280;42800;53.928;27.662;2023-03-11T06:39:52;96630.97;;;2.16;100.00
56912;BME280;42800;53.928;27.662;2023-03-11T06:42:19;96631.91;;;2.30;100.00
56912;BME280;42800;53.928;27.662;2023-03-11T06:44:48;96618.72;;;2.29;100.00
56912;BME280;42800;53.928;27.662;2023-03-11T06:47:18;96623.22;;;2.10;100.00
56912;BME280;42800;53.928;27.662;2023-03-11T06:49:45;96630.13;;;2.08;100.00
56912;BME280;42800;53.928;27.662;2023-03-11T06:52:12;96612.59;;;2.32;100.00
56912;BME280;42800;53.928;27.662;2023-03-11T06:54:43;96614.16;;;2.36;100.00
56912;BME280;42800;53.928;27.662;2023-03-11T06:57:11;96601.28;;;2.67;100.00
56912;BME280;42800;53.928;27.662;2023-03-11T06:59:38;96622.75;;;2.46;100.00
56912;BME280;42800;53.928;27.662;2023-03-11T07:02:05;96612.72;;;2.98;100.00
56912;BME280;42800;53.928;27.662;2023-03-11T07:04:33;96632.56;;;2.65;100.00
56912;BME280;42800;53.928;27.662;2023-03-11T07:07:07;96633.34;;;2.65;100.00
56912;BME280;42800;53.928;27.662;2023-03-11T07:09:33;96630.13;;;2.97;100.00
56912;BME280;42800;53.928;27.662;2023-03-11T07:12:00;96641.22;;;2.85;100.00
56912;BME280;42800;53.928;27.662;2023-03-11T07:14:27;96643.25;;;2.98;100.00
56912;BME280;42800;53.928;27.662;2023-03-11T07:16:54;96653.28;;;2.94;100.00
56912;BME280;42800;53.928;27.662;2023-03-11T07:19:26;96673.06;;;2.54;100.00
56912;BME280;42800;53.928;27.662;2023-03-11T07:21:57;96626.03;;;3.28;100.00
56912;BME280;42800;53.928;27.662;2023-03-11T07:24:28;96651.19;;;3.32;100.00
56912;BME280;42800;53.928;27.662;2023-03-11T07:26:57;96645.34;;;3.23;100.00
56912;BME280;42800;53.928;27.662;2023-03-11T07:29:23;96661.25;;;3.28;100.00
56912;BME280;42800;53.928;27.662;2023-03-11T07:31:55;96665.78;;;3.13;100.00
56912;BME280;42800;53.928;27.662;2023-03-11T07:34:22;96662.78;;;3.25;100.00
56912;BME280;42800;53.928;27.662;2023-03-11T07:36:48;96663.16;;;3.24;100.00
56912;BME280;42800;53.928;27.662;2023-03-11T07:39:18;96661.28;;;3.35;100.00
56912;BME280;42800;53.928;27.662;2023-03-11T07:41:44;96677.94;;;3.37;100.00
56912;BME280;42800;53.928;27.662;2023-03-11T07:44:13;96674.91;;;3.49;100.00
56912;BME280;42800;53.928;27.662;2023-03-11T07:46:41;96676.94;;;3.63;100.00
56912;BME280;42800;53.928;27.662;2023-03-11T07:49:08;96668.00;;;3.66;100.00
56912;BME280;42800;53.928;27.662;2023-03-11T07:51:35;96670.34;;;3.64;100.00
56912;BME280;42800;53.928;27.662;2023-03-11T07:54:02;96678.91;;;3.70;100.00
56912;BME280;42800;53.928;27.662;2023-03-11T07:56:30;96702.81;;;3.57;100.00
56912;BME280;42800;53.928;27.662;2023-03-11T07:58:56;96689.09;;;4.09;100.00
56912;BME280;42800;53.928;27.662;2023-03-11T08:01:24;96699.59;;;4.21;100.00
56912;BME280;42800;53.928;27.662;2023-03-11T08:03:52;96708.16;;;4.30;100.00
56912;BME280;42800;53.928;27.662;2023-03-11T08:06:23;96724.81;;;4.25;100.00
56912;BME280;42800;53.928;27.662;2023-03-11T08:08:50;96733.56;;;3.90;100.00
56912;BME280;42800;53.928;27.662;2023-03-11T08:11:17;96730.88;;;3.93;100.00
56912;BME280;42800;53.928;27.662;2023-03-11T08:13:46;96724.09;;;4.49;100.00
56912;BME280;42800;53.928;27.662;2023-03-11T08:16:14;96762.81;;;4.39;100.00
56912;BME280;42800;53.928;27.662;2023-03-11T08:18:42;96762.91;;;4.61;100.00
56912;BME280;42800;53.928;27.662;2023-03-11T08:21:11;96785.69;;;4.42;100.00
56912;BME280;42800;53.928;27.662;2023-03-11T08:23:38;96766.81;;;4.78;100.00
56912;BME280;42800;53.928;27.662;2023-03-11T08:26:04;96800.22;;;5.07;100.00
56912;BME280;42800;53.928;27.662;2023-03-11T08:28:31;96841.28;;;4.84;100.00
56912;BME280;42800;53.928;27.662;2023-03-11T08:30:58;96867.28;;;4.92;100.00
56912;BME280;42800;53.928;27.662;2023-03-11T08:33:24;96863.44;;;4.97;100.00
56912;BME280;42800;53.928;27.662;2023-03-11T08:35:52;96881.94;;;4.73;100.00
56912;BME280;42800;53.928;27.662;2023-03-11T08:38:18;96867.28;;;4.99;100.00
56912;BME280;42800;53.928;27.662;2023-03-11T08:40:45;96868.03;;;4.85;100.00
56912;BME280;42800;53.928;27.662;2023-03-11T08:43:11;96858.25;;;4.66;100.00
56912;BME280;42800;53.928;27.662;2023-03-11T08:45:38;96850.09;;;4.63;100.00
56912;BME280;42800;53.928;27.662;2023-03-11T08:48:05;96828.84;;;4.79;100.00
56912;BME280;42800;53.928;27.662;2023-03-11T08:50:31;96830.81;;;4.89;100.00
56912;BME280;42800;53.928;27.662;2023-03-11T08:52:57;96825.03;;;5.16;100.00
56912;BME280;42800;53.928;27.662;2023-03-11T08:55:28;96836.66;;;5.02;100.00
56912;BME280;42800;53.928;27.662;2023-03-11T08:57:56;96837.50;;;5.42;100.00
56912;BME280;42800;53.928;27.662;2023-03-11T09:00:23;96877.81;;;5.15;100.00
56912;BME280;42800;53.928;27.662;2023-03-11T09:02:49;96883.25;;;5.22;100.00
56912;BME280;42800;53.928;27.662;2023-03-11T09:05:15;96880.59;;;5.40;100.00
56912;BME280;42800;53.928;27.662;2023-03-11T09:07:41;96885.66;;;5.63;100.00
56912;BME280;42800;53.928;27.662;2023-03-11T09:10:08;96893.44;;;6.22;100.00
56912;BME280;42800;53.928;27.662;2023-03-11T09:12:35;96925.31;;;6.18;100.00
56912;BME280;42800;53.928;27.662;2023-03-11T09:15:02;96919.88;;;7.34;100.00
56912;BME280;42800;53.928;27.662;2023-03-11T09:17:28;96853.25;;;6.65;100.00
56912;BME280;42800;53.928;27.662;2023-03-11T09:19:54;96804.75;;;7.16;100.00
56912;BME280;42800;53.928;27.662;2023-03-11T09:22:22;96731.88;;;6.71;100.00
56912;BME280;42800;53.928;27.662;2023-03-11T09:24:49;96726.63;;;6.35;100.00
56912;BME280;42800;53.928;27.662;2023-03-11T09:27:15;96806.66;;;6.45;100.00
56912;BME280;42800;53.928;27.662;2023-03-11T09:29:41;96843.22;;;6.44;100.00
56912;BME280;42800;53.928;27.662;2023-03-11T09:32:09;96791.91;;;6.39;100.00
56912;BME280;42800;53.928;27.662;2023-03-11T09:34:36;96811.81;;;6.15;100.00
56912;BME280;42800;53.928;27.662;2023-03-11T09:37:02;96802.81;;;6.35;100.00
56912;BME280;42800;53.928;27.662;2023-03-11T09:39:28;96726.59;;;6.43;100.00
56912;BME280;42800;53.928;27.662;2023-03-11T09:41:56;96747.97;;;6.44;100.00
56912;BME280;42800;53.928;27.662;2023-03-11T09:44:27;96690.19;;;6.81;100.00
56912;BME280;42800;53.928;27.662;2023-03-11T09:47:29;96665.19;;;6.97;100.00
56912;BME280;42800;53.928;27.662;2023-03-11T09:50:29;96625.22;;;7.25;100.00
56912;BME280;42800;53.928;27.662;2023-03-11T09:53:11;96528.81;;;6.74;100.00
56912;BME280;42800;53.928;27.662;2023-03-11T09:55:44;96559.97;;;7.11;100.00
56912;BME280;42800;53.928;27.662;2023-03-11T09:58:15;96542.41;;;7.49;100.00
56912;BME280;42800;53.928;27.662;2023-03-11T10:00:43;96517.22;;;7.69;100.00
56912;BME280;42800;53.928;27.662;2023-03-11T10:03:21;96402.78;;;8.12;100.00
56912;BME280;42800;53.928;27.662;2023-03-11T10:05:50;96297.50;;;8.35;100.00
56912;BME280;42800;53.928;27.662;2023-03-11T10:08:22;96139.84;;;8.59;100.00
56912;BME280;42800;53.928;27.662;2023-03-11T10:10:54;96021.91;;;8.31;100.00
56912;BME280;42800;53.928;27.662;2023-03-11T10:13:28;96035.31;;;7.89;100.00
56912;BME280;42800;53.928;27.662;2023-03-11T10:16:00;96027.03;;;8.62;100.00
56912;BME280;42800;53.928;27.662;2023-03-11T10:18:33;96055.22;;;8.06;100.00
56912;BME280;42800;53.928;27.662;2023-03-11T10:21:08;96257.59;;;6.83;100.00
56912;BME280;42800;53.928;27.662;2023-03-11T10:23:53;96454.28;;;6.95;100.00
56912;BME280;42800;53.928;27.662;2023-03-11T10:26:26;96509.31;;;6.79;100.00
56912;BME280;42800;53.928;27.662;2023-03-11T10:28:56;96552.59;;;6.70;100.00
56912;BME280;42800;53.928;27.662;2023-03-11T10:31:29;96604.75;;;6.65;100.00
56912;BME280;42800;53.928;27.662;2023-03-11T10:34:00;96655.75;;;6.57;100.00
56912;BME280;42800;53.928;27.662;2023-03-11T10:36:34;96677.97;;;6.48;100.00
56912;BME280;42800;53.928;27.662;2023-03-11T10:39:01;96710.91;;;6.65;100.00
56912;BME280;42800;53.928;27.662;2023-03-11T10:41:30;96715.28;;;6.48;100.00
56912;BME280;42800;53.928;27.662;2023-03-11T10:44:05;96713.22;;;6.70;100.00
56912;BME280;42800;53.928;27.662;2023-03-11T10:46:31;96715.28;;;6.51;100.00
56912;BME280;42800;53.928;27.662;2023-03-11T10:48:58;96712.63;;;6.41;100.00
56912;BME280;42800;53.928;27.662;2023-03-11T10:51:26;96706.63;;;6.67;100.00
56912;BME280;42800;53.928;27.662;2023-03-11T10:53:58;96692.84;;;6.89;100.00
56912;BME280;42800;53.928;27.662;2023-03-11T10:56:27;96659.38;;;6.92;100.00
56912;BME280;42800;53.928;27.662;2023-03-11T10:58:53;96663.44;;;7.18;100.00
56912;BME280;42800;53.928;27.662;2023-03-11T11:01:20;96554.41;;;7.86;100.00
56912;BME280;42800;53.928;27.662;2023-03-11T11:03:47;96381.78;;;7.86;100.00
56912;BME280;42800;53.928;27.662;2023-03-11T11:06:24;96255.66;;;7.58;100.00
56912;BME280;42800;53.928;27.662;2023-03-11T11:09:05;96179.59;;;7.64;100.00
56912;BME280;42800;53.928;27.662;2023-03-11T11:11:38;96152.84;;;7.35;100.00
56912;BME280;42800;53.928;27.662;2023-03-11T11:14:04;96261.72;;;7.19;100.00
56912;BME280;42800;53.928;27.662;2023-03-11T11:16:34;96323.03;;;7.58;100.00
56912;BME280;42800;53.928;27.662;2023-03-11T11:19:02;96282.19;;;7.30;100.00
56912;BME280;42800;53.928;27.662;2023-03-11T11:21:32;96352.28;;;6.99;100.00
56912;BME280;42800;53.928;27.662;2023-03-11T11:24:07;96436.72;;;6.99;100.00
56912;BME280;42800;53.928;27.662;2023-03-11T11:26:34;96407.03;;;7.08;100.00
56912;BME280;42800;53.928;27.662;2023-03-11T11:29:12;96444.53;;;6.97;100.00
56912;BME280;42800;53.928;27.662;2023-03-11T11:31:44;96446.19;;;7.22;100.00
56912;BME280;42800;53.928;27.662;2023-03-11T11:34:28;96360.94;;;7.21;100.00
56912;BME280;42800;53.928;27.662;2023-03-11T11:36:58;96324.56;;;7.59;100.00
56912;BME280;42800;53.928;27.662;2023-03-11T11:39:26;96212.91;;;7.95;100.00
56912;BME280;42800;53.928;27.662;2023-03-11T11:41:54;96174.31;;;7.96;100.00
56912;BME280;42800;53.928;27.662;2023-03-11T11:44:21;96115.47;;;7.95;100.00
56912;BME280;42800;53.928;27.662;2023-03-11T11:46:57;96102.41;;;7.87;100.00
56912;BME280;42800;53.928;27.662;2023-03-11T11:49:32;96069.06;;;7.39;100.00
56912;BME280;42800;53.928;27.662;2023-03-11T11:52:06;96185.47;;;7.82;100.00
56912;BME280;42800;53.928;27.662;2023-03-11T11:54:42;96144.09;;;7.87;100.00
56912;BME280;42800;53.928;27.662;2023-03-11T11:57:12;96222.03;;;7.65;100.00
56912;BME280;42800;53.928;27.662;2023-03-11T11:59:40;96203.22;;;7.50;100.00
56912;BME280;42800;53.928;27.662;2023-03-11T12:02:18;96187.63;;;7.51;100.00
56912;BME280;42800;53.928;27.662;2023-03-11T12:04:55;96200.00;;;7.32;100.00
56912;BME280;42800;53.928;27.662;2023-03-11T12:07:48;96254.56;;;7.52;100.00
56912;BME280;42800;53.928;27.662;2023-03-11T12:10:24;96208.59;;;7.54;100.00
56912;BME280;42800;53.928;27.662;2023-03-11T12:13:26;96276.75;;;7.30;100.00
56912;BME280;42800;53.928;27.662;2023-03-11T12:15:58;96237.16;;;7.46;100.00
56912;BME280;42800;53.928;27.662;2023-03-11T12:18:32;96230.81;;;7.29;100.00
56912;BME280;42800;53.928;27.662;2023-03-11T12:21:12;96293.50;;;7.29;100.00
56912;BME280;42800;53.928;27.662;2023-03-11T12:23:55;96275.78;;;7.17;100.00
56912;BME280;42800;53.928;27.662;2023-03-11T12:26:27;96271.63;;;7.32;100.00
56912;BME280;42800;53.928;27.662;2023-03-11T12:29:02;96232.44;;;6.99;100.00
56912;BME280;42800;53.928;27.662;2023-03-11T12:31:33;96323.50;;;7.25;100.00
56912;BME280;42800;53.928;27.662;2023-03-11T12:34:05;96307.84;;;7.06;100.00
56912;BME280;42800;53.928;27.662;2023-03-11T12:36:35;96321.84;;;7.59;100.00
56912;BME280;42800;53.928;27.662;2023-03-11T12:39:04;96272.94;;;7.71;100.00
56912;BME280;42800;53.928;27.662;2023-03-11T12:41:35;96243.16;;;7.61;100.00
56912;BME280;42800;53.928;27.662;2023-03-11T12:44:28;96232.84;;;7.25;100.00
56912;BME280;42800;53.928;27.662;2023-03-11T12:47:17;96268.63;;;7.50;100.00
56912;BME280;42800;53.928;27.662;2023-03-11T12:49:44;96288.03;;;7.76;100.00
56912;BME280;42800;53.928;27.662;2023-03-11T12:52:22;96274.53;;;7.45;100.00
56912;BME280;42800;53.928;27.662;2023-03-11T13:04:23;96096.88;;;7.90;100.00
56912;BME280;42800;53.928;27.662;2023-03-11T13:09:43;96146.06;;;7.67;100.00